createdAt,value
2022-09-20T00:01:56.068Z,5.03
2022-09-20T00:07:09.445Z,5.10
2022-09-20T00:09:37.498Z,5.20
2022-09-20T00:12:05.954Z,4.90
2022-09-20T00:14:34.110Z,4.80
2022-09-20T00:17:02.323Z,4.32
2022-09-20T00:19:30.604Z,4.82
2022-09-20T00:21:58.728Z,4.00
2022-09-20T00:24:26.997Z,4.90
2022-09-20T00:26:55.502Z,4.70
2022-09-20T00:29:42.381Z,4.63
2022-09-20T00:32:28.854Z,4.55
2022-09-20T00:35:08.789Z,4.28
2022-09-20T00:37:42.864Z,5.25
2022-09-20T00:40:15.244Z,4.43
2022-09-20T00:43:01.698Z,4.03
2022-09-20T00:45:31.369Z,4.28
2022-09-20T00:48:31.476Z,4.82
2022-09-20T00:51:10.108Z,4.22
2022-09-20T00:53:42.125Z,4.32
2022-09-20T00:56:20.608Z,3.90
2022-09-20T00:59:06.594Z,4.25
2022-09-20T01:01:58.433Z,4.28
2022-09-20T01:04:27.985Z,3.88
2022-09-20T01:07:00.547Z,4.18
2022-09-20T01:09:47.513Z,4.28
2022-09-20T01:12:19.660Z,4.50
2022-09-20T01:14:50.272Z,4.78
2022-09-20T01:17:21.393Z,4.60
2022-09-20T01:20:17.143Z,4.97
2022-09-20T01:23:42.482Z,5.05
2022-09-20T01:26:45.232Z,4.47
2022-09-20T01:29:32.099Z,4.47
2022-09-20T01:32:03.723Z,4.95
2022-09-20T01:37:26.838Z,4.72
2022-09-20T01:39:54.822Z,4.82
2022-09-20T01:42:46.953Z,4.90
2022-09-20T01:45:31.807Z,4.80
2022-09-20T01:48:39.963Z,4.72
2022-09-20T01:54:16.454Z,4.03
2022-09-20T01:57:05.924Z,3.95
2022-09-20T02:00:02.447Z,4.45
2022-09-20T02:02:39.082Z,4.30
2022-09-20T02:05:39.708Z,4.05
2022-09-20T02:08:38.292Z,3.40
2022-09-20T02:11:29.599Z,3.80
2022-09-20T02:14:35.500Z,3.92
2022-09-20T02:17:21.736Z,4.13
2022-09-20T02:20:09.357Z,4.40
2022-09-20T02:22:45.163Z,3.95
2022-09-20T02:25:16.223Z,4.43
2022-09-20T02:28:02.931Z,4.72
2022-09-20T02:31:10.164Z,4.90
2022-09-20T02:34:01.283Z,4.57
2022-09-20T02:36:40.973Z,5.15
2022-09-20T02:39:37.935Z,4.88
2022-09-20T02:42:35.221Z,5.30
2022-09-20T02:45:42.020Z,5.47
2022-09-20T02:48:10.203Z,5.20
2022-09-20T02:50:52.870Z,5.07
2022-09-20T02:53:38.902Z,5.25
2022-09-20T02:56:42.061Z,5.95
2022-09-20T02:59:29.019Z,5.82
2022-09-20T03:02:31.158Z,5.85
2022-09-20T03:08:06.053Z,6.00
2022-09-20T03:11:21.099Z,6.35
2022-09-20T03:14:07.873Z,5.93
2022-09-20T03:16:54.676Z,6.28
2022-09-20T03:19:41.341Z,7.22
2022-09-20T03:23:06.839Z,7.35
2022-09-20T03:25:34.942Z,6.60
2022-09-20T03:28:18.087Z,7.22
2022-09-20T03:31:52.739Z,7.35
2022-09-20T03:34:28.636Z,7.82
2022-09-20T03:37:30.985Z,7.38
2022-09-20T03:40:20.410Z,7.28
2022-09-20T03:46:15.653Z,7.78
2022-09-20T03:49:35.752Z,7.15
2022-09-20T03:52:15.837Z,7.43
2022-09-20T03:54:50.220Z,6.72
2022-09-20T03:57:21.214Z,7.03
2022-09-20T04:00:10.287Z,7.35
2022-09-20T04:06:09.963Z,6.43
2022-09-20T04:09:05.404Z,6.80
2022-09-20T04:12:14.932Z,6.75
2022-09-20T04:15:00.565Z,6.82
2022-09-20T04:17:45.773Z,5.90
2022-09-20T04:20:46.730Z,6.07
2022-09-20T04:23:33.218Z,5.38
2022-09-20T04:26:03.443Z,4.50
2022-09-20T04:28:43.782Z,5.13
2022-09-20T04:32:02.859Z,5.13
2022-09-20T04:34:57.434Z,4.95
2022-09-20T04:37:33.274Z,4.97
2022-09-20T04:40:16.477Z,4.93
2022-09-20T04:43:17.742Z,5.22
2022-09-20T04:46:11.954Z,5.97
2022-09-20T04:48:49.871Z,5.35
2022-09-20T04:51:40.453Z,5.22
2022-09-20T04:54:18.154Z,5.22
2022-09-20T04:59:42.008Z,4.57
2022-09-20T05:04:49.694Z,5.47
2022-09-20T05:07:35.970Z,4.95
2022-09-20T05:10:33.888Z,5.82
2022-09-20T05:13:44.973Z,5.20
2022-09-20T05:16:58.775Z,5.53
2022-09-20T05:19:35.964Z,5.05
2022-09-20T05:22:20.375Z,5.30
2022-09-20T05:25:09.124Z,5.85
2022-09-20T05:28:13.211Z,5.90
2022-09-20T05:30:48.713Z,5.88
2022-09-20T05:33:26.574Z,5.82
2022-09-20T05:36:04.352Z,5.90
2022-09-20T05:38:51.959Z,6.03
2022-09-20T05:41:35.270Z,5.80
2022-09-20T05:44:03.673Z,6.72
2022-09-20T05:46:54.719Z,6.15
2022-09-20T05:53:03.966Z,6.30
2022-09-20T05:55:47.318Z,6.35
2022-09-20T05:58:34.741Z,7.55
2022-09-20T06:01:16.043Z,7.78
2022-09-20T06:03:55.969Z,6.80
2022-09-20T06:07:02.440Z,6.20
2022-09-20T06:09:46.153Z,6.70
2022-09-20T06:12:18.263Z,6.55
2022-09-20T06:15:34.308Z,6.10
2022-09-20T06:18:17.506Z,5.75
2022-09-20T06:21:17.795Z,6.13
2022-09-20T06:23:46.025Z,6.45
2022-09-20T06:26:21.646Z,7.45
2022-09-20T06:29:06.797Z,6.43
2022-09-20T06:31:34.917Z,6.75
2022-09-20T06:34:11.615Z,7.82
2022-09-20T06:37:09.115Z,7.45
2022-09-20T06:40:07.102Z,8.77
2022-09-20T06:42:36.336Z,8.90
2022-09-20T06:45:04.627Z,9.43
2022-09-20T06:47:36.801Z,8.13
2022-09-20T06:50:07.650Z,8.57
2022-09-20T06:52:35.957Z,9.15
2022-09-20T06:55:07.713Z,7.97
2022-09-20T06:57:38.295Z,8.85
2022-09-20T07:00:10.437Z,8.23
2022-09-20T07:02:38.785Z,8.70
2022-09-20T07:05:07.753Z,8.30
2022-09-20T07:07:35.811Z,7.60
2022-09-20T07:10:03.968Z,7.90
2022-09-20T07:12:34.279Z,7.38
2022-09-20T07:15:02.320Z,7.30
2022-09-20T07:17:30.236Z,6.72
2022-09-20T07:19:58.172Z,7.47
2022-09-20T07:22:27.232Z,7.85
2022-09-20T07:24:55.540Z,8.00
2022-09-20T07:27:26.427Z,7.55
2022-09-20T07:29:57.175Z,7.40
2022-09-20T07:32:25.145Z,7.72
2022-09-20T07:34:53.206Z,7.00
2022-09-20T07:37:21.429Z,6.72
2022-09-20T07:39:50.203Z,6.35
2022-09-20T07:42:18.139Z,6.75
2022-09-20T07:44:46.741Z,6.07
2022-09-20T07:47:15.327Z,5.78
2022-09-20T07:49:43.364Z,5.95
2022-09-20T07:52:11.552Z,6.97
2022-09-20T07:54:40.214Z,5.78
2022-09-20T07:57:08.403Z,5.40
2022-09-20T07:59:36.426Z,5.70
2022-09-20T08:02:05.036Z,5.72
2022-09-20T08:07:18.872Z,4.53
2022-09-20T08:09:46.833Z,4.40
2022-09-20T08:15:02.979Z,4.25
2022-09-20T08:17:31.095Z,4.07
2022-09-20T08:19:59.103Z,3.60
2022-09-20T08:22:27.057Z,3.42
2022-09-20T08:27:40.444Z,3.03
2022-09-20T08:30:09.255Z,2.22
2022-09-20T08:32:39.374Z,2.08
2022-09-20T08:35:07.708Z,2.10
2022-09-20T08:37:35.803Z,2.15
2022-09-20T08:40:05.093Z,2.03
2022-09-20T08:42:44.481Z,2.40
2022-09-20T08:48:16.547Z,2.15
2022-09-20T08:50:44.659Z,2.20
2022-09-20T08:53:14.954Z,2.22
2022-09-20T08:55:49.308Z,2.47
2022-09-20T08:58:17.384Z,2.40
2022-09-20T09:00:47.204Z,2.00
2022-09-20T09:03:18.157Z,2.03
2022-09-20T09:05:53.931Z,2.63
2022-09-20T09:08:28.567Z,2.20
2022-09-20T09:10:59.491Z,2.10
2022-09-20T09:13:34.968Z,2.53
2022-09-20T09:16:10.693Z,2.90
2022-09-20T09:18:42.157Z,2.40
2022-09-20T09:23:52.225Z,2.25
2022-09-20T09:26:23.368Z,2.22
2022-09-20T09:29:10.167Z,2.22
2022-09-20T09:31:39.986Z,2.20
2022-09-20T09:34:29.618Z,2.03
2022-09-20T09:36:58.955Z,2.20
2022-09-20T09:39:32.578Z,2.53
2022-09-20T09:42:26.491Z,2.00
2022-09-20T09:45:11.730Z,2.40
2022-09-20T09:47:39.824Z,2.22
2022-09-20T09:50:23.674Z,2.45
2022-09-20T09:52:59.636Z,2.15
2022-09-20T09:56:00.717Z,2.10
2022-09-20T09:58:56.506Z,1.95
2022-09-20T10:01:39.940Z,1.42
2022-09-20T10:04:42.306Z,1.85
2022-09-20T10:07:13.178Z,2.40
2022-09-20T10:09:57.264Z,1.52
2022-09-20T10:12:52.887Z,1.40
2022-09-20T10:15:42.923Z,1.05
2022-09-20T10:21:52.083Z,0.93
2022-09-20T10:24:51.397Z,1.20
2022-09-20T10:27:40.665Z,1.00
2022-09-20T10:30:13.192Z,1.00
2022-09-20T10:32:46.175Z,1.10
2022-09-20T10:35:25.180Z,1.40
2022-09-20T10:38:14.947Z,1.10
2022-09-20T10:41:26.391Z,1.30
2022-09-20T10:44:10.253Z,1.25
2022-09-20T10:47:03.399Z,1.40
2022-09-20T10:52:57.997Z,1.25
2022-09-20T10:55:59.513Z,1.30
2022-09-20T10:58:52.645Z,1.10
2022-09-20T11:01:59.050Z,1.17
2022-09-20T11:04:55.283Z,1.27
2022-09-20T11:07:43.169Z,1.17
2022-09-20T11:10:24.527Z,1.75
2022-09-20T11:13:00.455Z,1.08
2022-09-20T11:15:35.744Z,1.00
2022-09-20T11:18:38.653Z,1.02
2022-09-20T11:21:07.842Z,0.90
2022-09-20T11:23:45.985Z,1.10
2022-09-20T11:26:22.901Z,1.35
2022-09-20T11:31:43.019Z,1.05
2022-09-20T11:37:03.571Z,0.80
2022-09-20T11:39:51.613Z,1.15
2022-09-20T11:42:24.121Z,1.50
2022-09-20T11:45:13.831Z,1.60
2022-09-20T11:50:38.689Z,1.55
2022-09-20T11:53:43.517Z,1.30
2022-09-20T11:56:18.344Z,1.70
2022-09-20T11:58:49.682Z,1.48
2022-09-20T12:01:39.428Z,1.13
2022-09-20T12:04:32.877Z,1.73
2022-09-20T12:07:09.687Z,1.70
2022-09-20T12:09:43.569Z,1.38
2022-09-20T12:12:30.198Z,1.20
2022-09-20T12:15:06.136Z,1.58
2022-09-20T12:17:46.294Z,1.20
2022-09-20T12:20:33.198Z,1.23
2022-09-20T12:23:41.479Z,1.40
2022-09-20T12:26:41.975Z,1.65
2022-09-20T12:29:25.222Z,1.55
2022-09-20T12:32:33.473Z,2.10
2022-09-20T12:35:02.369Z,1.58
2022-09-20T12:37:30.503Z,1.20
2022-09-20T12:39:58.681Z,1.20
2022-09-20T12:42:33.148Z,1.10
2022-09-20T12:45:07.631Z,1.30
2022-09-20T12:47:37.795Z,1.10
2022-09-20T12:50:33.211Z,1.27
2022-09-20T12:53:07.450Z,1.10
2022-09-20T12:55:46.013Z,1.20
2022-09-20T12:58:14.646Z,1.35
2022-09-20T13:00:50.446Z,1.60
2022-09-20T13:03:32.249Z,1.60
2022-09-20T13:06:06.431Z,1.33
2022-09-20T13:09:01.983Z,1.30
2022-09-20T13:11:39.919Z,1.00
2022-09-20T13:14:24.212Z,0.90
2022-09-20T13:17:09.870Z,1.20
2022-09-20T13:19:51.741Z,1.10
2022-09-20T13:22:26.993Z,1.00
2022-09-20T13:25:01.611Z,1.00
2022-09-20T13:27:34.937Z,1.13
2022-09-20T13:30:10.422Z,1.05
2022-09-20T13:32:41.933Z,1.00
2022-09-20T13:35:18.656Z,0.73
2022-09-20T13:37:53.876Z,1.17
2022-09-20T13:40:25.474Z,0.90
2022-09-20T13:43:19.537Z,0.73
2022-09-20T13:45:44.472Z,0.93
2022-09-20T13:48:12.667Z,0.75
2022-09-20T13:50:45.762Z,0.82
2022-09-20T13:53:33.591Z,0.70
2022-09-20T13:56:16.840Z,1.00
2022-09-20T13:58:45.083Z,0.60
2022-09-20T14:01:32.548Z,0.50
2022-09-20T14:04:14.943Z,0.50
2022-09-20T14:06:43.283Z,0.60
2022-09-20T14:09:36.071Z,0.50
2022-09-20T14:12:06.049Z,0.50
2022-09-20T14:14:35.149Z,0.70
2022-09-20T14:17:06.784Z,0.60
2022-09-20T14:19:41.008Z,0.80
2022-09-20T14:22:25.805Z,0.75
2022-09-20T14:25:06.234Z,0.60
2022-09-20T14:27:34.507Z,0.50
2022-09-20T14:30:04.119Z,0.50
2022-09-20T14:32:40.071Z,0.60
2022-09-20T14:35:20.647Z,0.70
2022-09-20T14:40:49.822Z,0.50
2022-09-20T14:43:23.651Z,0.70
2022-09-20T14:45:54.765Z,0.50
2022-09-20T14:51:25.556Z,0.50
2022-09-20T14:54:12.353Z,0.43
2022-09-20T14:56:53.260Z,0.52
2022-09-20T14:59:27.692Z,0.77
2022-09-20T15:02:08.554Z,0.60
2022-09-20T15:05:01.282Z,0.70
2022-09-20T15:07:30.644Z,0.63
2022-09-20T15:09:58.703Z,0.70
2022-09-20T15:12:26.652Z,0.80
2022-09-20T15:14:54.646Z,1.05
2022-09-20T15:17:22.610Z,0.90
2022-09-20T15:20:23.216Z,1.02
2022-09-20T15:22:52.132Z,0.75
2022-09-20T15:25:21.665Z,0.70
2022-09-20T15:27:52.058Z,0.70
2022-09-20T15:30:21.247Z,0.65
2022-09-20T15:32:49.513Z,0.88
2022-09-20T15:35:17.667Z,0.70
2022-09-20T15:37:45.826Z,0.57
2022-09-20T15:40:13.895Z,0.80
2022-09-20T15:42:42.240Z,0.68
2022-09-20T15:45:11.887Z,0.63
2022-09-20T15:47:40.549Z,0.70
2022-09-20T15:50:09.725Z,0.70
2022-09-20T15:52:42.645Z,0.50
2022-09-20T15:55:11.225Z,0.60
2022-09-20T15:57:42.154Z,0.57
2022-09-20T16:00:10.610Z,0.70
2022-09-20T16:02:38.462Z,0.70
2022-09-20T16:05:07.145Z,0.60
2022-09-20T16:07:36.036Z,0.73
2022-09-20T16:10:04.293Z,0.65
2022-09-20T16:12:32.198Z,0.60
2022-09-20T16:15:00.059Z,0.70
2022-09-20T16:17:46.391Z,0.63
2022-09-20T16:20:14.472Z,0.65
2022-09-20T16:22:42.432Z,0.63
2022-09-20T16:25:10.361Z,0.63
2022-09-20T16:27:38.353Z,0.90
2022-09-20T16:30:06.894Z,0.73
2022-09-20T16:32:35.002Z,0.60
2022-09-20T16:35:07.338Z,0.60
2022-09-20T16:37:37.317Z,0.82
2022-09-20T16:40:05.791Z,0.73
2022-09-20T16:42:33.842Z,0.80
2022-09-20T16:45:01.701Z,0.80
2022-09-20T16:47:29.955Z,0.85
2022-09-20T16:49:58.538Z,0.90
2022-09-20T16:52:45.106Z,0.80
2022-09-20T16:55:13.351Z,0.60
2022-09-20T16:57:41.273Z,0.80
2022-09-20T17:00:10.934Z,0.80
2022-09-20T17:02:38.840Z,1.08
2022-09-20T17:05:07.402Z,0.98
2022-09-20T17:07:35.373Z,1.00
2022-09-20T17:10:03.340Z,0.82
2022-09-20T17:12:33.451Z,0.80
2022-09-20T17:15:01.398Z,0.90
2022-09-20T17:17:29.841Z,0.90
2022-09-20T17:19:57.781Z,0.77
2022-09-20T17:22:25.766Z,0.80
2022-09-20T17:24:53.839Z,0.95
2022-09-20T17:27:40.437Z,0.73
2022-09-20T17:30:10.379Z,0.80
2022-09-20T17:32:38.439Z,0.93
2022-09-20T17:35:06.966Z,0.88
2022-09-20T17:37:35.271Z,0.80
2022-09-20T17:40:04.078Z,0.68
2022-09-20T17:42:34.127Z,0.82
2022-09-20T17:45:02.033Z,1.08
2022-09-20T17:47:30.188Z,0.93
2022-09-20T17:49:58.138Z,1.00
2022-09-20T17:52:26.199Z,1.02
2022-09-20T17:54:55.274Z,1.10
2022-09-20T17:57:25.003Z,1.23
2022-09-20T17:59:52.879Z,1.10
2022-09-20T18:02:20.811Z,1.48
2022-09-20T18:04:49.665Z,1.17
2022-09-20T18:07:17.705Z,1.40
2022-09-20T18:09:45.509Z,1.10
2022-09-20T18:12:18.157Z,0.95
2022-09-20T18:14:47.899Z,1.10
2022-09-20T18:17:15.819Z,0.88
2022-09-20T18:19:44.826Z,1.40
2022-09-20T18:24:58.898Z,1.00
2022-09-20T18:27:26.848Z,0.90
2022-09-20T18:29:54.768Z,1.00
2022-09-20T18:32:25.780Z,0.90
2022-09-20T18:34:53.780Z,0.98
2022-09-20T18:37:21.746Z,0.90
2022-09-20T18:39:50.092Z,1.13
2022-09-20T18:42:36.933Z,0.90
2022-09-20T18:45:05.481Z,1.00
2022-09-20T18:47:33.443Z,1.00
2022-09-20T18:50:01.959Z,1.40
2022-09-20T18:52:29.996Z,1.20
2022-09-20T18:54:58.979Z,1.10
2022-09-20T18:57:27.134Z,1.98
2022-09-20T19:00:00.671Z,1.15
2022-09-20T19:02:57.860Z,0.90
2022-09-20T19:05:51.697Z,0.85
2022-09-20T19:08:35.331Z,0.90
2022-09-20T19:11:11.051Z,0.80
2022-09-20T19:14:01.042Z,0.90
2022-09-20T19:16:41.175Z,0.90
2022-09-20T19:19:38.896Z,0.80
2022-09-20T19:22:49.602Z,1.02
2022-09-20T19:25:17.552Z,0.98
2022-09-20T19:27:46.137Z,0.95
2022-09-20T19:30:15.227Z,1.40
2022-09-20T19:32:45.846Z,1.13
2022-09-20T19:35:20.581Z,1.08
2022-09-20T19:37:51.431Z,0.85
2022-09-20T19:40:19.378Z,1.27
2022-09-20T19:43:17.446Z,0.98
2022-09-20T19:46:00.599Z,1.50
2022-09-20T19:48:40.512Z,1.52
2022-09-20T19:51:13.032Z,1.17
2022-09-20T19:53:41.331Z,1.05
2022-09-20T19:56:27.996Z,1.25
2022-09-20T19:58:56.662Z,0.90
2022-09-20T20:01:26.099Z,1.02
2022-09-20T20:03:55.278Z,1.30
2022-09-20T20:06:32.411Z,1.10
2022-09-20T20:09:24.530Z,1.45
2022-09-20T20:11:58.402Z,0.93
2022-09-20T20:14:36.429Z,1.10
2022-09-20T20:17:13.364Z,0.98
2022-09-20T20:20:10.626Z,0.95
2022-09-20T20:22:57.122Z,1.40
2022-09-20T20:25:35.918Z,1.50
2022-09-20T20:28:03.907Z,1.60
2022-09-20T20:30:32.386Z,1.00
2022-09-20T20:33:00.947Z,0.90
2022-09-20T20:35:28.862Z,0.90
2022-09-20T20:37:56.821Z,1.30
2022-09-20T20:40:24.935Z,2.22
2022-09-20T20:43:02.311Z,2.03
2022-09-20T20:45:30.628Z,1.90
2022-09-20T20:47:59.580Z,1.50
2022-09-20T20:50:29.678Z,1.15
2022-09-20T20:52:57.702Z,1.13
2022-09-20T20:55:25.608Z,1.23
2022-09-20T20:57:58.454Z,1.58
2022-09-20T21:00:27.908Z,1.48
2022-09-20T21:03:00.489Z,1.48
2022-09-20T21:05:29.329Z,1.52
2022-09-20T21:08:16.192Z,1.20
2022-09-20T21:10:44.144Z,1.30
2022-09-20T21:13:12.181Z,1.02
2022-09-20T21:15:40.167Z,1.20
2022-09-20T21:18:08.249Z,1.35
2022-09-20T21:20:38.871Z,1.20
2022-09-20T21:23:06.837Z,1.30
2022-09-20T21:25:34.745Z,1.33
2022-09-20T21:28:02.681Z,1.30
2022-09-20T21:30:30.593Z,1.25
2022-09-20T21:32:59.971Z,1.20
2022-09-20T21:35:29.629Z,1.02
2022-09-20T21:37:57.677Z,1.13
2022-09-20T21:40:25.825Z,1.33
2022-09-20T21:42:54.114Z,1.60
2022-09-20T21:45:24.183Z,1.60
2022-09-20T21:48:10.603Z,1.67
2022-09-20T21:50:38.776Z,1.55
2022-09-20T21:53:07.183Z,1.45
2022-09-20T21:55:35.291Z,1.40
2022-09-20T21:58:03.361Z,1.50
2022-09-20T22:00:31.501Z,1.30
2022-09-20T22:02:59.724Z,1.77
2022-09-20T22:05:28.077Z,1.52
2022-09-20T22:08:14.506Z,1.45
2022-09-20T22:10:42.652Z,1.98
2022-09-20T22:16:22.024Z,1.35
2022-09-20T22:18:50.553Z,1.63
2022-09-20T22:21:21.637Z,1.50
2022-09-20T22:23:54.779Z,1.52
2022-09-20T22:26:23.415Z,1.88
2022-09-20T22:28:52.119Z,1.33
2022-09-20T22:31:22.549Z,1.80
2022-09-20T22:34:09.494Z,2.00
2022-09-20T22:36:56.371Z,1.33
2022-09-20T22:39:24.475Z,1.45
2022-09-20T22:41:52.752Z,1.55
2022-09-20T22:44:20.879Z,1.33
2022-09-20T22:46:49.130Z,1.45
2022-09-20T22:49:17.281Z,1.42
2022-09-20T22:52:03.971Z,1.60
2022-09-20T22:54:32.247Z,1.85
2022-09-20T22:57:00.813Z,1.58
2022-09-20T22:59:29.023Z,1.90
2022-09-20T23:01:57.999Z,1.60
2022-09-20T23:04:26.289Z,1.75
2022-09-20T23:06:57.615Z,1.77
2022-09-20T23:09:28.518Z,1.88
2022-09-20T23:12:15.226Z,1.63
2022-09-20T23:14:43.329Z,1.90
2022-09-20T23:17:29.794Z,1.40
2022-09-20T23:19:57.840Z,1.50
2022-09-20T23:25:11.644Z,1.50
2022-09-20T23:27:58.609Z,1.48
2022-09-20T23:31:04.797Z,1.73
2022-09-20T23:33:33.616Z,1.65
2022-09-20T23:36:06.232Z,1.52
2022-09-20T23:38:34.417Z,1.23
2022-09-20T23:41:22.698Z,1.90
2022-09-20T23:43:51.120Z,1.55
2022-09-20T23:46:21.792Z,1.60
2022-09-20T23:51:56.869Z,1.52
2022-09-20T23:54:25.120Z,1.80
2022-09-20T23:56:53.549Z,1.40
2022-09-20T23:59:21.607Z,1.55
